Main page
METAR-TAF:

METAR-TAF

Airports :

Marshalltown Municipal Airport

Marshalltown, Iowa, United States

latitude: 42-06-38N, longitude: 092-54-58W, elevation: 971 ft

Current weather observation

The report was made 1 hour and 1 minutes ago, at 00:53 UTC
Wind 15 mph from the South with gusts up to 24 mph
Temperature 64°F
Humidity 39%
Pressure 29.71 in. Hg
Visibility: 10 miles
Broken clouds at a height of 9500 ft

METAR: KMIW 230053Z AUTO 19013G21KT 10SM BKN095 18/04 A2971 RMK AO2 PK WND 20030/0010 SLP060 T01780039

Time: 20:54 (01:54 UTC)


TAF: missing

Weather observations and forecasts of more than 4000 airports (METAR and TAF reports).

The available stations are represented by yellow and red dots on the map.

Hover mouse over dot to see the name of the station.

Then click to see weather observations and forecasts.

To change the map : click on the green buttons with a black cross to zoom in, on the green button with a dash to zoom out, or on the green arrows for adjacent maps.


METAR-TAF: